createdAt,value
2019-05-06T00:00:26.973Z,10.70
2019-05-06T00:03:01.364Z,10.80
2019-05-06T00:05:34.006Z,10.70
2019-05-06T00:08:03.937Z,10.60
2019-05-06T00:10:36.063Z,10.50
2019-05-06T00:13:05.671Z,10.70
2019-05-06T00:15:35.946Z,10.80
2019-05-06T00:18:05.564Z,10.80
2019-05-06T00:20:35.397Z,10.70
2019-05-06T00:23:07.110Z,10.70
2019-05-06T00:25:38.243Z,10.60
2019-05-06T00:28:09.972Z,10.50
2019-05-06T00:30:41.125Z,10.30
2019-05-06T00:33:10.682Z,10.30
2019-05-06T00:35:40.290Z,10.30
2019-05-06T00:38:09.938Z,10.10
2019-05-06T00:40:54.316Z,9.90
2019-05-06T00:43:23.994Z,10.00
2019-05-06T00:45:53.719Z,10.10
2019-05-06T00:48:24.407Z,10.20
2019-05-06T00:50:54.371Z,10.20
2019-05-06T00:53:25.565Z,10.20
2019-05-06T00:55:55.031Z,10.20
2019-05-06T00:58:24.530Z,10.20
2019-05-06T01:00:54.139Z,10.30
2019-05-06T01:03:24.031Z,10.30
2019-05-06T01:05:54.981Z,10.40
2019-05-06T01:08:24.618Z,10.10
2019-05-06T01:10:54.662Z,10.10
2019-05-06T01:13:35.118Z,10.20
2019-05-06T01:16:05.435Z,10.40
2019-05-06T01:18:34.956Z,10.40
2019-05-06T01:21:10.338Z,10.50
2019-05-06T01:23:43.755Z,10.50
2019-05-06T01:26:15.515Z,10.50
2019-05-06T01:28:45.944Z,10.50
2019-05-06T01:31:15.437Z,10.50
2019-05-06T01:33:45.406Z,10.40
2019-05-06T01:36:15.227Z,10.50
2019-05-06T01:38:46.399Z,10.50
2019-05-06T01:41:27.516Z,10.50
2019-05-06T01:43:56.914Z,10.60
2019-05-06T01:46:26.313Z,10.70
2019-05-06T01:48:55.715Z,10.70
2019-05-06T01:51:25.272Z,10.60
2019-05-06T01:53:54.792Z,10.60
2019-05-06T01:56:24.355Z,10.70
2019-05-06T01:58:54.202Z,10.70
2019-05-06T02:01:25.079Z,10.70
2019-05-06T02:03:55.017Z,10.80
2019-05-06T02:06:25.082Z,10.80
2019-05-06T02:08:54.788Z,10.80
2019-05-06T02:11:24.299Z,10.80
2019-05-06T02:13:53.915Z,10.70
2019-05-06T02:16:26.106Z,10.60
2019-05-06T02:18:55.553Z,10.60
2019-05-06T02:21:29.640Z,10.60
2019-05-06T02:24:00.833Z,10.70
2019-05-06T02:26:30.375Z,10.50
2019-05-06T02:29:01.370Z,10.10
2019-05-06T02:31:49.152Z,10.20
2019-05-06T02:37:37.511Z,10.30
2019-05-06T02:40:27.825Z,10.20
2019-05-06T02:42:57.794Z,10.10
2019-05-06T02:45:27.403Z,10.10
2019-05-06T02:48:04.193Z,10.10
2019-05-06T02:50:45.960Z,10.00
2019-05-06T02:53:17.140Z,10.00
2019-05-06T02:55:46.745Z,10.20
2019-05-06T02:58:35.562Z,10.10
2019-05-06T03:01:05.110Z,10.20
2019-05-06T03:03:34.664Z,10.00
2019-05-06T03:06:04.558Z,10.10
2019-05-06T03:08:34.652Z,10.10
2019-05-06T03:11:04.541Z,10.20
2019-05-06T03:13:35.758Z,10.30
2019-05-06T03:16:17.948Z,10.40
2019-05-06T03:18:47.363Z,10.30
2019-05-06T03:21:24.447Z,10.20
2019-05-06T03:23:54.409Z,10.10
2019-05-06T03:26:24.459Z,10.20
2019-05-06T03:28:54.106Z,10.20
2019-05-06T03:31:26.097Z,10.20
2019-05-06T03:34:16.031Z,10.20
2019-05-06T03:36:33.301Z,10.10
2019-05-06T03:38:57.093Z,9.90
2019-05-06T03:41:26.888Z,9.90
2019-05-06T03:43:56.622Z,10.00
2019-05-06T03:46:34.016Z,9.90
2019-05-06T03:49:13.508Z,9.90
2019-05-06T03:51:42.895Z,9.80
2019-05-06T03:54:14.287Z,9.80
2019-05-06T03:56:44.447Z,9.80
2019-05-06T03:59:16.897Z,9.80
2019-05-06T04:01:46.426Z,9.80
2019-05-06T04:04:15.953Z,9.90
2019-05-06T04:06:46.455Z,10.00
2019-05-06T04:09:15.936Z,10.00
2019-05-06T04:11:46.336Z,10.10
2019-05-06T04:14:17.984Z,10.20
2019-05-06T04:16:49.228Z,10.20
2019-05-06T04:19:20.443Z,10.10
2019-05-06T04:22:07.948Z,9.80
2019-05-06T04:24:39.213Z,9.80
2019-05-06T04:27:25.254Z,9.70
2019-05-06T04:29:54.825Z,9.80
2019-05-06T04:32:24.394Z,9.80
2019-05-06T04:34:53.906Z,10.10
2019-05-06T04:37:24.247Z,10.00
2019-05-06T04:39:53.913Z,9.70
2019-05-06T04:42:26.884Z,9.80
2019-05-06T04:44:54.968Z,9.80
2019-05-06T04:47:24.483Z,9.80
2019-05-06T04:49:55.847Z,9.80
2019-05-06T04:52:26.100Z,9.70
2019-05-06T04:54:57.421Z,9.60
2019-05-06T04:57:27.221Z,9.60
2019-05-06T04:59:56.857Z,9.40
2019-05-06T05:02:28.470Z,9.60
2019-05-06T05:04:59.737Z,9.60
2019-05-06T05:07:33.214Z,9.70
2019-05-06T05:10:03.719Z,9.70
2019-05-06T05:12:52.403Z,9.70
2019-05-06T05:15:32.521Z,9.60
2019-05-06T05:18:22.130Z,9.60
2019-05-06T05:20:52.853Z,9.60
2019-05-06T05:23:22.946Z,9.50
2019-05-06T05:25:53.835Z,9.60
2019-05-06T05:28:23.413Z,9.50
2019-05-06T05:30:52.961Z,9.50
2019-05-06T05:33:23.789Z,9.50
2019-05-06T05:35:53.197Z,9.50
2019-05-06T05:38:22.851Z,9.60
2019-05-06T05:40:52.769Z,9.60
2019-05-06T05:43:34.019Z,9.80
2019-05-06T05:46:03.700Z,9.90
2019-05-06T05:48:52.296Z,10.00
2019-05-06T05:51:22.240Z,10.00
2019-05-06T05:53:52.279Z,10.10
2019-05-06T05:56:23.967Z,10.10
2019-05-06T05:59:06.044Z,10.10
2019-05-06T06:01:35.682Z,10.30
2019-05-06T06:04:05.370Z,10.30
2019-05-06T06:06:34.989Z,10.30
2019-05-06T06:09:07.175Z,10.30
2019-05-06T06:11:52.995Z,10.30
2019-05-06T06:14:43.732Z,10.40
2019-05-06T06:17:18.394Z,10.40
2019-05-06T06:19:50.613Z,10.60
2019-05-06T06:22:22.820Z,10.70
2019-05-06T06:24:52.624Z,10.70
2019-05-06T06:27:22.434Z,10.80
2019-05-06T06:29:52.781Z,10.70
2019-05-06T06:32:27.123Z,10.60
2019-05-06T06:35:10.530Z,10.70
2019-05-06T06:37:37.742Z,10.60
2019-05-06T06:40:09.085Z,10.40
2019-05-06T06:42:38.562Z,10.30
2019-05-06T06:45:08.914Z,10.50
2019-05-06T06:47:39.434Z,10.50
2019-05-06T06:50:08.932Z,10.70
2019-05-06T06:52:38.467Z,10.80
2019-05-06T06:55:08.133Z,10.70
2019-05-06T06:57:42.366Z,10.50
2019-05-06T07:00:17.040Z,10.30
2019-05-06T07:02:48.034Z,10.40
2019-05-06T07:05:27.895Z,10.60
2019-05-06T07:07:54.164Z,10.60
2019-05-06T07:10:43.041Z,10.80
2019-05-06T07:13:15.060Z,10.90
2019-05-06T07:15:45.124Z,11.00
2019-05-06T07:18:14.745Z,11.10
2019-05-06T07:20:46.017Z,11.10
2019-05-06T07:23:27.553Z,11.10
2019-05-06T07:26:12.135Z,11.00
2019-05-06T07:28:43.689Z,10.90
2019-05-06T07:31:26.675Z,11.10
2019-05-06T07:33:56.651Z,11.20
2019-05-06T07:36:26.179Z,11.40
2019-05-06T07:38:55.657Z,11.50
2019-05-06T07:41:36.113Z,11.30
2019-05-06T07:44:13.057Z,11.10
2019-05-06T07:46:44.493Z,11.10
2019-05-06T07:49:15.281Z,11.00
2019-05-06T07:51:44.876Z,11.00
2019-05-06T07:54:14.284Z,11.10
2019-05-06T07:56:43.972Z,11.10
2019-05-06T07:59:13.518Z,11.10
2019-05-06T08:01:44.238Z,11.40
2019-05-06T08:04:13.984Z,11.70
2019-05-06T08:06:43.495Z,11.70
2019-05-06T08:09:13.298Z,11.80
2019-05-06T08:11:43.070Z,11.90
2019-05-06T08:14:13.267Z,11.90
2019-05-06T08:16:47.548Z,12.00
2019-05-06T08:19:17.228Z,12.10
2019-05-06T08:21:48.844Z,12.10
2019-05-06T08:24:18.457Z,12.10
2019-05-06T08:26:48.158Z,12.00
2019-05-06T08:29:18.168Z,12.10
2019-05-06T08:31:47.874Z,12.10
2019-05-06T08:34:17.886Z,12.20
2019-05-06T08:36:48.998Z,12.40
2019-05-06T08:39:18.510Z,12.40
2019-05-06T08:41:48.155Z,12.50
2019-05-06T08:44:17.834Z,12.70
2019-05-06T08:46:47.376Z,12.80
2019-05-06T08:49:16.925Z,13.00
2019-05-06T08:51:52.895Z,13.10
2019-05-06T08:54:32.451Z,13.10
2019-05-06T08:57:09.466Z,13.30
2019-05-06T08:59:38.959Z,13.20
2019-05-06T09:02:08.602Z,13.20
2019-05-06T09:04:38.117Z,13.20
2019-05-06T09:07:07.593Z,13.10
2019-05-06T09:09:36.948Z,13.20
2019-05-06T09:12:06.539Z,13.30
2019-05-06T09:14:36.103Z,13.40
2019-05-06T09:17:06.915Z,13.40
2019-05-06T09:19:36.452Z,13.50
2019-05-06T09:22:05.932Z,13.40
2019-05-06T09:24:35.387Z,13.40
2019-05-06T09:27:09.713Z,13.50
2019-05-06T09:29:46.838Z,13.30
2019-05-06T09:32:18.120Z,13.40
2019-05-06T09:34:52.706Z,13.50
2019-05-06T09:37:23.970Z,13.50
2019-05-06T09:39:54.063Z,13.50
2019-05-06T09:42:23.700Z,13.60
2019-05-06T09:44:54.347Z,13.70
2019-05-06T09:47:42.569Z,13.90
2019-05-06T09:50:14.569Z,13.80
2019-05-06T09:52:44.185Z,13.90
2019-05-06T09:55:16.344Z,13.90
2019-05-06T09:57:59.994Z,13.90
2019-05-06T10:00:34.599Z,14.00
2019-05-06T10:03:04.976Z,14.20
2019-05-06T10:05:34.528Z,14.00
2019-05-06T10:08:04.321Z,13.90
2019-05-06T10:10:34.171Z,14.00
2019-05-06T10:13:03.941Z,14.00
2019-05-06T10:15:33.808Z,14.20
2019-05-06T10:18:12.721Z,14.30
2019-05-06T10:20:43.889Z,14.40
2019-05-06T10:23:15.067Z,14.40
2019-05-06T10:25:45.124Z,14.40
2019-05-06T10:28:33.995Z,14.50
2019-05-06T10:31:05.603Z,14.60
2019-05-06T10:33:36.721Z,14.80
2019-05-06T10:36:06.377Z,14.80
2019-05-06T10:38:44.950Z,14.60
2019-05-06T10:41:17.422Z,14.60
2019-05-06T10:43:52.414Z,14.80
2019-05-06T10:46:22.514Z,14.90
2019-05-06T10:48:53.533Z,14.80
2019-05-06T10:51:32.401Z,14.80
2019-05-06T10:54:03.191Z,14.80
2019-05-06T10:56:49.858Z,14.90
2019-05-06T10:59:08.946Z,14.90
2019-05-06T11:01:42.536Z,15.00
2019-05-06T11:04:11.169Z,15.00
2019-05-06T11:06:42.850Z,15.20
2019-05-06T11:09:13.531Z,15.20
2019-05-06T11:11:43.450Z,15.10
2019-05-06T11:14:13.093Z,15.20
2019-05-06T11:16:47.218Z,15.30
2019-05-06T11:19:18.620Z,15.30
2019-05-06T11:21:48.082Z,15.40
2019-05-06T11:24:17.689Z,15.10
2019-05-06T11:26:47.155Z,15.20
2019-05-06T11:29:21.063Z,15.30
2019-05-06T11:32:03.813Z,15.40
2019-05-06T11:34:37.722Z,15.40
2019-05-06T11:37:12.100Z,15.50
2019-05-06T11:39:43.219Z,15.60
2019-05-06T11:42:28.000Z,15.70
2019-05-06T11:44:45.554Z,15.80
2019-05-06T11:47:15.100Z,15.50
2019-05-06T11:49:44.556Z,15.50
2019-05-06T11:52:14.042Z,15.50
2019-05-06T11:54:43.441Z,15.60
2019-05-06T11:57:12.934Z,15.70
2019-05-06T11:59:43.545Z,15.80
2019-05-06T12:02:17.620Z,15.90
2019-05-06T12:04:47.054Z,15.80
2019-05-06T12:07:16.586Z,15.80
2019-05-06T12:09:46.173Z,15.90
2019-05-06T12:12:16.687Z,15.90
2019-05-06T12:14:46.310Z,16.20
2019-05-06T12:17:15.870Z,16.30
2019-05-06T12:19:45.528Z,16.20
2019-05-06T12:22:15.004Z,16.10
2019-05-06T12:24:44.556Z,16.30
2019-05-06T12:27:15.651Z,16.40
2019-05-06T12:29:45.132Z,16.50
2019-05-06T12:32:16.166Z,16.50
2019-05-06T12:34:45.638Z,16.50
2019-05-06T12:37:16.850Z,16.90
2019-05-06T12:39:47.930Z,16.70
2019-05-06T12:42:19.174Z,16.40
2019-05-06T12:44:52.784Z,16.40
2019-05-06T12:47:23.064Z,16.50
2019-05-06T12:49:53.397Z,16.40
2019-05-06T12:52:23.362Z,16.60
2019-05-06T12:54:54.358Z,16.60
2019-05-06T12:57:24.023Z,16.70
2019-05-06T12:59:53.543Z,16.90
2019-05-06T13:02:25.074Z,16.80
2019-05-06T13:05:00.470Z,16.80
2019-05-06T13:07:27.323Z,16.90
2019-05-06T13:09:56.881Z,17.30
2019-05-06T13:12:47.266Z,17.30
2019-05-06T13:15:17.436Z,17.30
2019-05-06T13:17:46.916Z,17.20
2019-05-06T13:20:17.524Z,17.20
2019-05-06T13:22:48.553Z,17.10
2019-05-06T13:25:18.955Z,16.90
2019-05-06T13:27:55.749Z,16.70
2019-05-06T13:30:25.508Z,16.60
2019-05-06T13:33:05.992Z,16.80
2019-05-06T13:35:35.715Z,17.30
2019-05-06T13:38:05.308Z,17.60
2019-05-06T13:40:36.553Z,18.00
2019-05-06T13:43:07.739Z,17.90
2019-05-06T13:45:37.779Z,17.80
2019-05-06T13:48:09.064Z,17.90
2019-05-06T13:50:42.941Z,17.60
2019-05-06T13:53:14.649Z,17.50
2019-05-06T13:55:43.618Z,17.70
2019-05-06T13:58:13.107Z,17.60
2019-05-06T14:00:42.750Z,17.90
2019-05-06T14:03:13.551Z,18.10
2019-05-06T14:05:43.169Z,18.40
2019-05-06T14:08:13.110Z,18.30
2019-05-06T14:10:42.791Z,18.40
2019-05-06T14:13:12.953Z,18.80
2019-05-06T14:15:42.558Z,19.10
2019-05-06T14:18:13.470Z,19.20
2019-05-06T14:20:43.415Z,18.90
2019-05-06T14:23:14.262Z,19.10
2019-05-06T14:25:47.974Z,18.80
2019-05-06T14:28:19.175Z,18.60
2019-05-06T14:30:53.335Z,19.20
2019-05-06T14:33:23.582Z,19.70
2019-05-06T14:35:53.526Z,19.20
2019-05-06T14:38:24.614Z,19.10
2019-05-06T14:41:04.424Z,19.00
2019-05-06T14:43:34.223Z,18.90
2019-05-06T14:46:03.840Z,19.30
2019-05-06T14:48:33.457Z,19.00
2019-05-06T14:51:02.974Z,19.00
2019-05-06T14:53:33.280Z,18.60
2019-05-06T14:56:04.854Z,19.20
2019-05-06T14:58:34.377Z,19.40
2019-05-06T15:01:04.294Z,20.00
2019-05-06T15:03:33.755Z,20.10
2019-05-06T15:06:03.350Z,19.80
2019-05-06T15:08:32.812Z,19.50
2019-05-06T15:11:03.114Z,19.80
2019-05-06T15:13:32.898Z,20.40
2019-05-06T15:16:03.447Z,20.20
2019-05-06T15:18:33.453Z,19.90
2019-05-06T15:21:29.055Z,19.30
2019-05-06T15:23:34.143Z,19.30
2019-05-06T15:26:04.130Z,19.30
2019-05-06T15:28:33.873Z,19.20
2019-05-06T15:31:23.647Z,19.00
2019-05-06T15:34:06.923Z,19.40
2019-05-06T15:36:52.807Z,20.10
2019-05-06T15:39:23.652Z,20.30
2019-05-06T15:41:52.873Z,20.30
2019-05-06T15:44:23.310Z,20.00
2019-05-06T15:46:53.087Z,19.90
2019-05-06T15:49:22.614Z,19.60
2019-05-06T15:51:52.427Z,20.20
2019-05-06T15:54:28.092Z,20.70
2019-05-06T15:56:58.251Z,21.30
2019-05-06T15:59:47.221Z,22.50
2019-05-06T16:02:16.833Z,23.00
2019-05-06T16:04:46.298Z,21.80
2019-05-06T16:07:16.002Z,20.70
2019-05-06T16:09:45.584Z,20.80
2019-05-06T16:12:16.251Z,20.90
2019-05-06T16:14:45.896Z,21.10
2019-05-06T16:17:15.424Z,21.40
2019-05-06T16:19:44.960Z,21.00
2019-05-06T16:22:15.782Z,21.00
2019-05-06T16:24:48.041Z,21.10
2019-05-06T16:27:17.634Z,21.00
2019-05-06T16:29:47.260Z,21.20
2019-05-06T16:32:16.801Z,21.20
2019-05-06T16:34:46.494Z,20.50
2019-05-06T16:37:16.598Z,20.50
2019-05-06T16:39:46.310Z,20.20
2019-05-06T16:42:15.754Z,20.10
2019-05-06T16:44:45.562Z,20.00
2019-05-06T16:47:16.716Z,19.70
2019-05-06T16:49:46.343Z,19.30
2019-05-06T16:52:15.991Z,18.80
2019-05-06T16:54:45.650Z,19.10
2019-05-06T16:57:16.800Z,19.30
2019-05-06T16:59:46.333Z,19.80
2019-05-06T17:02:17.586Z,19.80
2019-05-06T17:04:48.771Z,19.80
2019-05-06T17:07:22.084Z,19.50
2019-05-06T17:09:52.630Z,19.40
2019-05-06T17:12:22.486Z,19.60
2019-05-06T17:14:52.800Z,19.50
2019-05-06T17:17:22.901Z,19.50
2019-05-06T17:19:52.942Z,19.60
2019-05-06T17:22:23.018Z,19.70
2019-05-06T17:24:52.982Z,19.20
2019-05-06T17:27:23.578Z,19.30
2019-05-06T17:29:58.229Z,19.30
2019-05-06T17:32:33.435Z,19.30
2019-05-06T17:35:05.552Z,19.30
2019-05-06T17:37:47.675Z,19.00
2019-05-06T17:40:22.897Z,19.10
2019-05-06T17:42:53.265Z,19.30
2019-05-06T17:45:39.981Z,19.40
2019-05-06T17:48:12.731Z,19.10
2019-05-06T17:50:42.514Z,19.00
2019-05-06T17:53:12.382Z,18.50
2019-05-06T17:55:43.266Z,18.20
2019-05-06T17:58:13.150Z,18.20
2019-05-06T18:00:43.365Z,18.10
2019-05-06T18:03:13.315Z,17.70
2019-05-06T18:05:42.888Z,17.50
2019-05-06T18:08:12.938Z,17.40
2019-05-06T18:10:42.756Z,17.40
2019-05-06T18:13:13.536Z,17.50
2019-05-06T18:15:43.356Z,17.70
2019-05-06T18:18:13.231Z,17.80
2019-05-06T18:20:44.683Z,17.60
2019-05-06T18:23:14.735Z,17.40
2019-05-06T18:25:44.279Z,17.20
2019-05-06T18:28:13.770Z,16.90
2019-05-06T18:30:44.373Z,16.70
2019-05-06T18:33:19.653Z,16.40
2019-05-06T18:35:50.619Z,16.40
2019-05-06T18:38:21.840Z,16.30
2019-05-06T18:40:52.877Z,16.30
2019-05-06T18:43:22.975Z,16.20
2019-05-06T18:45:58.185Z,16.10
2019-05-06T18:48:31.344Z,16.00
2019-05-06T18:50:58.994Z,15.90
2019-05-06T18:53:28.589Z,15.70
2019-05-06T18:55:58.143Z,15.70
2019-05-06T18:58:27.873Z,15.60
2019-05-06T19:00:57.468Z,15.50
2019-05-06T19:03:28.689Z,15.50
2019-05-06T19:05:58.233Z,15.50
2019-05-06T19:08:32.898Z,15.40
2019-05-06T19:11:02.953Z,15.40
2019-05-06T19:13:33.486Z,15.30
2019-05-06T19:16:03.097Z,15.20
2019-05-06T19:18:32.528Z,15.10
2019-05-06T19:21:02.639Z,15.10
2019-05-06T19:23:32.537Z,15.00
2019-05-06T19:26:02.859Z,15.00
2019-05-06T19:28:32.977Z,14.90
2019-05-06T19:31:03.231Z,14.80
2019-05-06T19:33:34.873Z,14.70
2019-05-06T19:36:04.143Z,14.70
2019-05-06T19:38:33.859Z,14.70
2019-05-06T19:41:05.823Z,14.60
2019-05-06T19:43:34.543Z,14.60
2019-05-06T19:46:23.634Z,14.50
2019-05-06T19:48:53.373Z,14.50
2019-05-06T19:51:22.946Z,14.40
2019-05-06T19:53:52.509Z,14.40
2019-05-06T19:56:23.221Z,14.30
2019-05-06T19:58:53.255Z,14.30
2019-05-06T20:01:23.101Z,14.20
2019-05-06T20:03:52.783Z,14.30
2019-05-06T20:06:40.339Z,14.20
2019-05-06T20:09:15.308Z,14.20
2019-05-06T20:11:45.921Z,14.20
2019-05-06T20:14:22.050Z,14.20
2019-05-06T20:16:52.863Z,14.20
2019-05-06T20:19:30.671Z,14.10
2019-05-06T20:22:01.998Z,14.20
2019-05-06T20:24:33.301Z,14.10
2019-05-06T20:27:03.147Z,14.10
2019-05-06T20:29:35.214Z,14.10
2019-05-06T20:32:04.235Z,14.10
2019-05-06T20:34:33.735Z,14.00
2019-05-06T20:37:03.348Z,14.00
2019-05-06T20:39:33.071Z,14.00
2019-05-06T20:42:02.933Z,14.00
2019-05-06T20:44:32.650Z,14.00
2019-05-06T20:47:03.135Z,14.00
2019-05-06T20:49:33.387Z,14.10
2019-05-06T20:52:03.175Z,14.00
2019-05-06T20:54:32.703Z,14.00
2019-05-06T20:57:02.652Z,14.00
2019-05-06T20:59:32.470Z,14.00
2019-05-06T21:02:03.186Z,14.00
2019-05-06T21:04:32.847Z,13.90
2019-05-06T21:07:02.840Z,13.70
2019-05-06T21:09:38.563Z,13.70
2019-05-06T21:12:08.188Z,13.60
2019-05-06T21:14:37.776Z,13.60
2019-05-06T21:17:07.256Z,13.60
2019-05-06T21:19:36.980Z,13.50
2019-05-06T21:22:06.663Z,13.50
2019-05-06T21:24:36.287Z,13.50
2019-05-06T21:27:05.967Z,13.50
